createdAt,value
2017-03-19T00:00:30.928Z,1001.18
2017-03-19T00:01:30.912Z,1001.17
2017-03-19T00:02:30.897Z,1001.16
2017-03-19T00:03:30.883Z,1001.13
2017-03-19T00:04:30.868Z,1001.2
2017-03-19T00:05:30.891Z,1001.17
2017-03-19T00:06:30.836Z,1001.18
2017-03-19T00:07:30.820Z,1001.18
2017-03-19T00:08:30.806Z,1001.21
2017-03-19T00:09:30.790Z,1001.28
2017-03-19T00:10:30.774Z,1001.27
2017-03-19T00:11:30.760Z,1001.24
2017-03-19T00:12:30.744Z,1001.22
2017-03-19T00:13:30.728Z,1001.26
2017-03-19T00:14:30.712Z,1001.27
2017-03-19T00:15:30.697Z,1001.25
2017-03-19T00:16:30.679Z,1001.22
2017-03-19T00:17:30.666Z,1001.22
2017-03-19T00:18:30.651Z,1001.16
2017-03-19T00:19:30.635Z,1001.19
2017-03-19T00:20:30.619Z,1001.18
2017-03-19T00:21:30.604Z,1001.21
2017-03-19T00:22:30.593Z,1001.18
2017-03-19T00:23:30.577Z,1001.22
2017-03-19T00:24:30.557Z,1001.22
2017-03-19T00:25:30.542Z,1001.18
2017-03-19T00:26:30.528Z,1001.18
2017-03-19T00:27:30.518Z,1001.17
2017-03-19T00:28:30.496Z,1001.19
2017-03-19T00:29:30.481Z,1001.23
2017-03-19T00:30:30.464Z,1001.24
2017-03-19T00:31:30.450Z,1001.3
2017-03-19T00:32:30.435Z,1001.34
2017-03-19T00:33:30.418Z,1001.32
2017-03-19T00:34:30.433Z,1001.34
2017-03-19T00:35:30.389Z,1001.37
2017-03-19T00:36:30.372Z,1001.33
2017-03-19T00:37:30.359Z,1001.33
2017-03-19T00:38:30.343Z,1001.28
2017-03-19T00:39:30.325Z,1001.24
2017-03-19T00:40:30.313Z,1001.23
2017-03-19T00:41:30.324Z,1001.19
2017-03-19T00:42:30.281Z,1001.19
2017-03-19T00:43:30.264Z,1001.23
2017-03-19T00:44:30.249Z,1001.22
2017-03-19T00:45:30.234Z,1001.25
2017-03-19T00:46:30.218Z,1001.28
2017-03-19T00:47:30.203Z,1001.28
2017-03-19T00:48:30.194Z,1001.31
2017-03-19T00:49:30.174Z,1001.33
2017-03-19T00:50:30.157Z,1001.32
2017-03-19T00:51:30.392Z,1001.29
2017-03-19T00:52:30.126Z,1001.28
2017-03-19T00:53:30.115Z,1001.22
2017-03-19T00:54:30.097Z,1001.23
2017-03-19T00:55:30.082Z,1001.17
2017-03-19T00:56:30.064Z,1001.2
2017-03-19T00:57:30.047Z,1001.14
2017-03-19T00:58:30.034Z,1001.09
2017-03-19T00:59:30.022Z,1001.05
2017-03-19T01:00:30.002Z,1000.97
2017-03-19T01:01:29.988Z,1000.94
2017-03-19T01:02:29.972Z,1000.93
2017-03-19T01:03:29.957Z,1000.97
2017-03-19T01:04:29.941Z,1000.95
2017-03-19T01:05:29.926Z,1000.99
2017-03-19T01:06:29.911Z,1001
2017-03-19T01:07:29.894Z,1000.98
2017-03-19T01:08:29.882Z,1001
2017-03-19T01:09:29.867Z,1001.02
2017-03-19T01:10:29.851Z,1000.96
2017-03-19T01:11:29.842Z,1000.99
2017-03-19T01:12:29.821Z,1001
2017-03-19T01:13:29.805Z,1001.01
2017-03-19T01:14:29.793Z,1001.08
2017-03-19T01:15:29.775Z,1001.12
2017-03-19T01:16:29.758Z,1001.18
2017-03-19T01:17:29.742Z,1001.13
2017-03-19T01:18:29.729Z,1001.14
2017-03-19T01:19:29.913Z,1001.12
2017-03-19T01:20:29.697Z,1001.1
2017-03-19T01:21:29.681Z,1001.08
2017-03-19T01:22:29.666Z,1001.05
2017-03-19T01:23:29.650Z,1001.07
2017-03-19T01:24:29.634Z,1001.02
2017-03-19T01:25:29.621Z,1000.99
2017-03-19T01:26:29.602Z,1000.94
2017-03-19T01:27:29.590Z,1000.95
2017-03-19T01:28:29.574Z,1000.94
2017-03-19T01:29:29.558Z,1000.89
2017-03-19T01:30:29.543Z,1000.86
2017-03-19T01:31:29.527Z,1000.85
2017-03-19T01:32:29.513Z,1000.87
2017-03-19T01:33:29.496Z,1000.92
2017-03-19T01:34:29.482Z,1000.87
2017-03-19T01:35:29.467Z,1000.83
2017-03-19T01:36:29.450Z,1000.78
2017-03-19T01:37:29.435Z,1000.7
2017-03-19T01:38:29.422Z,1000.7
2017-03-19T01:39:29.403Z,1000.72
2017-03-19T01:40:29.388Z,1000.78
2017-03-19T01:41:29.374Z,1000.85
2017-03-19T01:42:29.358Z,1000.85
2017-03-19T01:43:29.343Z,1000.87
2017-03-19T01:44:29.327Z,1000.93
2017-03-19T01:45:29.311Z,1000.92
2017-03-19T01:46:29.296Z,1000.92
2017-03-19T01:47:29.280Z,1000.92
2017-03-19T01:48:29.266Z,1000.92
2017-03-19T01:49:29.249Z,1000.91
2017-03-19T01:50:29.234Z,1000.86
2017-03-19T01:51:29.218Z,1000.88
2017-03-19T01:52:29.204Z,1000.83
2017-03-19T01:53:29.188Z,1000.81
2017-03-19T01:54:29.174Z,1000.77
2017-03-19T01:55:29.158Z,1000.73
2017-03-19T01:56:29.142Z,1000.72
2017-03-19T01:57:29.128Z,1000.76
2017-03-19T01:58:29.110Z,1000.82
2017-03-19T01:59:29.096Z,1000.79
2017-03-19T02:00:29.081Z,1000.78
2017-03-19T02:01:29.068Z,1000.75
2017-03-19T02:02:29.050Z,1000.73
2017-03-19T02:03:29.036Z,1000.73
2017-03-19T02:04:29.022Z,1000.73
2017-03-19T02:05:29.003Z,1000.67
2017-03-19T02:06:28.988Z,1000.66
2017-03-19T02:07:28.974Z,1000.65
2017-03-19T02:08:28.958Z,1000.64
2017-03-19T02:09:28.946Z,1000.63
2017-03-19T02:10:28.929Z,1000.63
2017-03-19T02:11:28.913Z,1000.62
2017-03-19T02:12:28.900Z,1000.61
2017-03-19T02:13:28.881Z,1000.6
2017-03-19T02:14:28.866Z,1000.63
2017-03-19T02:15:28.849Z,1000.64
2017-03-19T02:16:28.837Z,1000.6
2017-03-19T02:17:28.818Z,1000.59
2017-03-19T02:18:28.805Z,1000.6
2017-03-19T02:19:28.786Z,1000.52
2017-03-19T02:20:28.776Z,1000.53
2017-03-19T02:21:28.761Z,1000.49
2017-03-19T02:22:28.745Z,1000.48
2017-03-19T02:23:28.728Z,1000.46
2017-03-19T02:24:28.710Z,1000.43
2017-03-19T02:25:28.695Z,1000.43
2017-03-19T02:26:28.681Z,1000.4
2017-03-19T02:27:28.662Z,1000.39
2017-03-19T02:28:28.648Z,1000.35
2017-03-19T02:29:28.632Z,1000.38
2017-03-19T02:30:28.619Z,1000.32
2017-03-19T02:31:28.600Z,1000.29
2017-03-19T02:32:28.584Z,1000.25
2017-03-19T02:33:28.570Z,1000.23
2017-03-19T02:34:28.553Z,1000.2
2017-03-19T02:35:28.536Z,1000.21
2017-03-19T02:36:28.520Z,1000.21
2017-03-19T02:37:28.507Z,1000.22
2017-03-19T02:38:28.490Z,1000.22
2017-03-19T02:39:28.475Z,1000.18
2017-03-19T02:40:28.458Z,1000.22
2017-03-19T02:41:28.442Z,1000.22
2017-03-19T02:42:28.427Z,1000.25
2017-03-19T02:43:28.412Z,1000.22
2017-03-19T02:44:28.396Z,1000.23
2017-03-19T02:45:28.377Z,1000.21
2017-03-19T02:46:28.365Z,1000.2
2017-03-19T02:47:28.346Z,1000.22
2017-03-19T02:48:28.332Z,1000.18
2017-03-19T02:49:28.313Z,1000.21
2017-03-19T02:50:28.299Z,1000.13
2017-03-19T02:51:28.282Z,1000.12
2017-03-19T02:52:28.268Z,1000.11
2017-03-19T02:53:28.248Z,1000.06
2017-03-19T02:54:28.234Z,1000.09
2017-03-19T02:55:28.217Z,1000.07
2017-03-19T02:56:28.205Z,1000.01
2017-03-19T02:57:28.186Z,999.96
2017-03-19T02:58:28.173Z,999.98
2017-03-19T02:59:28.161Z,999.98
2017-03-19T03:00:28.150Z,999.93
2017-03-19T03:01:28.121Z,999.92
2017-03-19T03:02:28.112Z,999.91
2017-03-19T03:03:28.104Z,999.92
2017-03-19T03:04:28.080Z,999.93
2017-03-19T03:05:28.070Z,999.95
2017-03-19T03:06:28.055Z,999.91
2017-03-19T03:07:28.040Z,999.93
2017-03-19T03:08:28.008Z,999.95
2017-03-19T03:09:27.998Z,999.97
2017-03-19T03:10:27.976Z,999.99
2017-03-19T03:11:27.966Z,1000
2017-03-19T03:12:27.953Z,1000.05
2017-03-19T03:13:27.933Z,1000.04
2017-03-19T03:14:27.915Z,1000.06
2017-03-19T03:15:27.898Z,1000.09
2017-03-19T03:16:27.883Z,1000.12
2017-03-19T03:17:27.865Z,1000.09
2017-03-19T03:18:27.851Z,1000.1
2017-03-19T03:19:28.045Z,1000.07
2017-03-19T03:20:27.818Z,1000.09
2017-03-19T03:21:27.804Z,1000.04
2017-03-19T03:22:27.787Z,999.98
2017-03-19T03:23:27.771Z,999.98
2017-03-19T03:24:27.754Z,999.96
2017-03-19T03:25:27.737Z,999.92
2017-03-19T03:26:27.723Z,999.9
2017-03-19T03:27:27.708Z,999.88
2017-03-19T03:28:27.691Z,999.93
2017-03-19T03:29:27.674Z,999.89
2017-03-19T03:30:27.663Z,999.86
2017-03-19T03:31:27.643Z,999.81
2017-03-19T03:32:27.628Z,999.78
2017-03-19T03:33:27.611Z,999.75
2017-03-19T03:34:27.646Z,999.78
2017-03-19T03:35:27.580Z,999.73
2017-03-19T03:36:27.567Z,999.69
2017-03-19T03:37:27.549Z,999.74
2017-03-19T03:38:27.532Z,999.74
2017-03-19T03:39:27.517Z,999.76
2017-03-19T03:40:27.500Z,999.79
2017-03-19T03:41:27.484Z,999.76
2017-03-19T03:42:27.468Z,999.8
2017-03-19T03:43:27.453Z,999.76
2017-03-19T03:44:27.436Z,999.81
2017-03-19T03:45:27.420Z,999.85
2017-03-19T03:46:27.404Z,999.85
2017-03-19T03:47:27.390Z,999.85
2017-03-19T03:48:27.371Z,999.81
2017-03-19T03:49:27.363Z,999.82
2017-03-19T03:50:27.342Z,999.85
2017-03-19T03:51:27.323Z,999.8
2017-03-19T03:52:27.307Z,999.8
2017-03-19T03:53:27.291Z,999.82
2017-03-19T03:54:27.277Z,999.78
2017-03-19T03:55:27.262Z,999.77
2017-03-19T03:56:27.248Z,999.75
2017-03-19T03:57:27.229Z,999.72
2017-03-19T03:58:27.215Z,999.73
2017-03-19T03:59:27.197Z,999.64
2017-03-19T04:00:27.183Z,999.68
2017-03-19T04:01:27.168Z,999.64
2017-03-19T04:02:27.149Z,999.6
2017-03-19T04:03:27.135Z,999.61
2017-03-19T04:04:27.119Z,999.64
2017-03-19T04:05:27.103Z,999.64
2017-03-19T04:06:27.086Z,999.63
2017-03-19T04:07:27.072Z,999.61
2017-03-19T04:08:27.059Z,999.6
2017-03-19T04:09:27.041Z,999.57
2017-03-19T04:10:27.026Z,999.54
2017-03-19T04:11:27.007Z,999.53
2017-03-19T04:12:26.992Z,999.52
2017-03-19T04:13:26.976Z,999.47
2017-03-19T04:14:26.960Z,999.49
2017-03-19T04:15:26.943Z,999.49
2017-03-19T04:16:26.929Z,999.51
2017-03-19T04:17:26.915Z,999.44
2017-03-19T04:18:26.898Z,999.46
2017-03-19T04:19:26.883Z,999.45
2017-03-19T04:20:26.866Z,999.47
2017-03-19T04:21:26.850Z,999.47
2017-03-19T04:22:26.835Z,999.47
2017-03-19T04:23:26.818Z,999.41
2017-03-19T04:24:26.802Z,999.45
2017-03-19T04:25:26.786Z,999.43
2017-03-19T04:26:26.771Z,999.43
2017-03-19T04:27:26.755Z,999.4
2017-03-19T04:28:26.740Z,999.38
2017-03-19T04:29:26.724Z,999.4
2017-03-19T04:30:26.709Z,999.44
2017-03-19T04:31:26.691Z,999.38
2017-03-19T04:32:26.675Z,999.44
2017-03-19T04:33:26.661Z,999.43
2017-03-19T04:34:26.645Z,999.45
2017-03-19T04:35:26.671Z,999.41
2017-03-19T04:36:26.612Z,999.45
2017-03-19T04:37:26.598Z,999.42
2017-03-19T04:38:26.582Z,999.42
2017-03-19T04:39:26.566Z,999.39
2017-03-19T04:40:26.549Z,999.41
2017-03-19T04:41:26.533Z,999.42
2017-03-19T04:42:26.520Z,999.42
2017-03-19T04:43:26.501Z,999.39
2017-03-19T04:44:26.487Z,999.4
2017-03-19T04:45:26.471Z,999.39
2017-03-19T04:46:26.454Z,999.47
2017-03-19T04:47:26.438Z,999.46
2017-03-19T04:48:26.475Z,999.38
2017-03-19T04:49:26.410Z,999.36
2017-03-19T04:50:26.412Z,999.35
2017-03-19T04:51:26.376Z,999.34
2017-03-19T04:52:26.361Z,999.33
2017-03-19T04:53:26.353Z,999.29
2017-03-19T04:54:26.329Z,999.32
2017-03-19T04:55:26.315Z,999.33
2017-03-19T04:56:26.297Z,999.3
2017-03-19T04:57:26.279Z,999.35
2017-03-19T04:58:26.265Z,999.34
2017-03-19T04:59:26.250Z,999.34
2017-03-19T05:00:26.234Z,999.3
2017-03-19T05:01:26.220Z,999.34
2017-03-19T05:02:26.207Z,999.3
2017-03-19T05:03:26.187Z,999.26
2017-03-19T05:04:26.173Z,999.32
2017-03-19T05:05:26.157Z,999.27
2017-03-19T05:06:26.144Z,999.35
2017-03-19T05:07:26.125Z,999.38
2017-03-19T05:08:26.109Z,999.47
2017-03-19T05:09:26.095Z,999.49
2017-03-19T05:10:26.079Z,999.55
2017-03-19T05:11:26.063Z,999.61
2017-03-19T05:12:26.049Z,999.62
2017-03-19T05:13:26.032Z,999.68
2017-03-19T05:14:26.017Z,999.67
2017-03-19T05:15:26.002Z,999.63
2017-03-19T05:16:25.988Z,999.62
2017-03-19T05:17:25.970Z,999.57
2017-03-19T05:18:25.957Z,999.5
2017-03-19T05:19:26.141Z,999.38
2017-03-19T05:20:25.923Z,999.42
2017-03-19T05:21:25.907Z,999.34
2017-03-19T05:22:25.892Z,999.36
2017-03-19T05:23:25.879Z,999.36
2017-03-19T05:24:25.865Z,999.46
2017-03-19T05:25:25.848Z,999.43
2017-03-19T05:26:25.831Z,999.46
2017-03-19T05:27:25.815Z,999.48
2017-03-19T05:28:25.800Z,999.36
2017-03-19T05:29:25.784Z,999.22
2017-03-19T05:30:25.769Z,999.26
2017-03-19T05:31:25.753Z,999.28
2017-03-19T05:32:25.744Z,999.36
2017-03-19T05:33:25.722Z,999.32
2017-03-19T05:34:25.706Z,999.31
2017-03-19T05:35:25.692Z,999.3
2017-03-19T05:36:25.678Z,999.25
2017-03-19T05:37:25.659Z,999.18
2017-03-19T05:38:25.647Z,999.21
2017-03-19T05:39:25.630Z,999.23
2017-03-19T05:40:25.614Z,999.24
2017-03-19T05:41:25.597Z,999.25
2017-03-19T05:42:25.582Z,999.26
2017-03-19T05:43:25.566Z,999.29
2017-03-19T05:44:25.550Z,999.28
2017-03-19T05:45:25.534Z,999.32
2017-03-19T05:46:25.520Z,999.33
2017-03-19T05:47:25.505Z,999.3
2017-03-19T05:48:25.490Z,999.29
2017-03-19T05:49:25.474Z,999.31
2017-03-19T05:50:25.458Z,999.27
2017-03-19T05:51:25.444Z,999.25
2017-03-19T05:52:25.427Z,999.21
2017-03-19T05:53:25.412Z,999.18
2017-03-19T05:54:25.396Z,999.12
2017-03-19T05:55:25.381Z,999.11
2017-03-19T05:56:25.366Z,999.1
2017-03-19T05:57:25.348Z,999.11
2017-03-19T05:58:25.334Z,999.08
2017-03-19T05:59:25.318Z,998.99
2017-03-19T06:00:25.303Z,999
2017-03-19T06:01:25.289Z,998.92
2017-03-19T06:02:25.273Z,998.87
2017-03-19T06:03:25.257Z,998.83
2017-03-19T06:04:25.241Z,998.78
2017-03-19T06:05:25.227Z,998.73
2017-03-19T06:06:25.211Z,998.78
2017-03-19T06:07:25.196Z,998.75
2017-03-19T06:08:25.182Z,998.78
2017-03-19T06:09:25.168Z,998.81
2017-03-19T06:10:25.153Z,998.82
2017-03-19T06:11:25.135Z,998.81
2017-03-19T06:12:25.119Z,998.82
2017-03-19T06:13:25.104Z,998.84
2017-03-19T06:14:25.088Z,998.85
2017-03-19T06:15:25.072Z,998.88
2017-03-19T06:16:25.056Z,998.9
2017-03-19T06:17:25.042Z,998.93
2017-03-19T06:18:25.036Z,998.95
2017-03-19T06:19:25.010Z,999.04
2017-03-19T06:20:24.998Z,999
2017-03-19T06:21:24.979Z,998.99
2017-03-19T06:22:24.964Z,999.02
2017-03-19T06:23:24.951Z,998.99
2017-03-19T06:24:24.936Z,998.93
2017-03-19T06:25:24.917Z,998.98
2017-03-19T06:26:24.905Z,998.91
2017-03-19T06:27:24.891Z,998.94
2017-03-19T06:28:24.875Z,998.92
2017-03-19T06:29:24.858Z,998.86
2017-03-19T06:30:24.842Z,999.03
2017-03-19T06:31:24.828Z,998.89
2017-03-19T06:32:24.811Z,998.92
2017-03-19T06:33:24.797Z,998.9
2017-03-19T06:34:24.781Z,998.99
2017-03-19T06:35:24.766Z,998.88
2017-03-19T06:36:24.749Z,998.87
2017-03-19T06:37:24.735Z,998.91
2017-03-19T06:38:24.719Z,998.83
2017-03-19T06:39:24.706Z,998.83
2017-03-19T06:40:24.689Z,998.78
2017-03-19T06:41:24.674Z,998.79
2017-03-19T06:42:24.660Z,998.77
2017-03-19T06:43:24.644Z,998.75
2017-03-19T06:44:24.629Z,998.78
2017-03-19T06:45:24.618Z,998.71
2017-03-19T06:46:24.598Z,998.76
2017-03-19T06:47:24.582Z,998.81
2017-03-19T06:48:24.567Z,998.79
2017-03-19T06:49:24.554Z,998.81
2017-03-19T06:50:24.536Z,998.74
2017-03-19T06:51:24.521Z,998.78
2017-03-19T06:52:24.506Z,998.75
2017-03-19T06:53:24.491Z,998.7
2017-03-19T06:54:24.475Z,998.68
2017-03-19T06:55:24.462Z,998.72
2017-03-19T06:56:24.446Z,998.71
2017-03-19T06:57:24.430Z,998.71
2017-03-19T06:58:24.418Z,998.66
2017-03-19T06:59:24.403Z,998.69
2017-03-19T07:00:24.394Z,998.7
2017-03-19T07:01:24.369Z,998.74
2017-03-19T07:02:24.353Z,998.67
2017-03-19T07:03:24.340Z,998.71
2017-03-19T07:04:24.326Z,998.67
2017-03-19T07:05:24.306Z,998.7
2017-03-19T07:06:24.292Z,998.68
2017-03-19T07:07:24.283Z,998.66
2017-03-19T07:08:24.277Z,998.61
2017-03-19T07:09:24.247Z,998.65
2017-03-19T07:10:24.232Z,998.62
2017-03-19T07:11:24.217Z,998.61
2017-03-19T07:12:24.252Z,998.69
2017-03-19T07:13:24.187Z,998.72
2017-03-19T07:14:24.171Z,998.65
2017-03-19T07:15:24.158Z,998.68
2017-03-19T07:16:24.140Z,998.69
2017-03-19T07:17:24.125Z,998.64
2017-03-19T07:18:24.110Z,998.66
2017-03-19T07:19:24.297Z,998.73
2017-03-19T07:20:24.079Z,998.7
2017-03-19T07:21:24.065Z,998.72
2017-03-19T07:22:24.051Z,998.73
2017-03-19T07:23:24.035Z,998.78
2017-03-19T07:24:24.021Z,998.71
2017-03-19T07:25:24.003Z,998.79
2017-03-19T07:26:23.988Z,998.8
2017-03-19T07:27:23.973Z,998.72
2017-03-19T07:28:23.977Z,998.76
2017-03-19T07:29:23.943Z,998.76
2017-03-19T07:30:23.928Z,998.73
2017-03-19T07:31:23.912Z,998.76
2017-03-19T07:32:23.896Z,998.7
2017-03-19T07:33:23.884Z,998.65
2017-03-19T07:34:23.868Z,998.71
2017-03-19T07:35:23.851Z,998.6
2017-03-19T07:36:23.835Z,998.66
2017-03-19T07:37:23.823Z,998.68
2017-03-19T07:38:23.806Z,998.68
2017-03-19T07:39:23.793Z,998.67
2017-03-19T07:40:23.775Z,998.68
2017-03-19T07:41:23.760Z,998.67
2017-03-19T07:42:23.748Z,998.67
2017-03-19T07:43:23.731Z,998.63
2017-03-19T07:44:23.715Z,998.71
2017-03-19T07:45:23.700Z,998.68
2017-03-19T07:46:23.686Z,998.67
2017-03-19T07:47:23.670Z,998.66
2017-03-19T07:48:23.655Z,998.65
2017-03-19T07:49:23.641Z,998.7
2017-03-19T07:50:23.626Z,998.68
2017-03-19T07:51:23.613Z,998.69
2017-03-19T07:52:23.594Z,998.69
2017-03-19T07:53:23.582Z,998.7
2017-03-19T07:54:23.565Z,998.68
2017-03-19T07:55:23.550Z,998.68
2017-03-19T07:56:23.533Z,998.67
2017-03-19T07:57:23.521Z,998.67
2017-03-19T07:58:23.504Z,998.55
2017-03-19T07:59:23.491Z,998.6
2017-03-19T08:00:23.475Z,998.6
2017-03-19T08:01:23.460Z,998.54
2017-03-19T08:02:23.444Z,998.57
2017-03-19T08:03:23.430Z,998.57
2017-03-19T08:04:23.418Z,998.53
2017-03-19T08:05:23.398Z,998.55
2017-03-19T08:06:23.387Z,998.53
2017-03-19T08:07:23.368Z,998.52
2017-03-19T08:08:23.356Z,998.61
2017-03-19T08:09:23.340Z,998.56
2017-03-19T08:10:23.325Z,998.61
2017-03-19T08:11:23.309Z,998.59
2017-03-19T08:12:23.296Z,998.64
2017-03-19T08:13:23.282Z,998.65
2017-03-19T08:14:23.266Z,998.61
2017-03-19T08:15:23.249Z,998.66
2017-03-19T08:16:23.236Z,998.67
2017-03-19T08:17:23.223Z,998.66
2017-03-19T08:18:23.206Z,998.65
2017-03-19T08:19:23.191Z,998.63
2017-03-19T08:20:23.176Z,998.61
2017-03-19T08:21:23.162Z,998.54
2017-03-19T08:22:23.146Z,998.64
2017-03-19T08:23:23.132Z,998.53
2017-03-19T08:24:23.118Z,998.53
2017-03-19T08:25:23.100Z,998.54
2017-03-19T08:26:23.086Z,998.52
2017-03-19T08:27:23.072Z,998.52
2017-03-19T08:28:23.057Z,998.63
2017-03-19T08:29:23.043Z,998.56
2017-03-19T08:30:23.028Z,998.55
2017-03-19T08:31:23.013Z,998.5
2017-03-19T08:32:22.997Z,998.56
2017-03-19T08:33:22.982Z,998.61
2017-03-19T08:34:22.968Z,998.62
2017-03-19T08:35:22.952Z,998.66
2017-03-19T08:36:22.937Z,998.62
2017-03-19T08:37:22.929Z,998.61
2017-03-19T08:38:22.908Z,998.72
2017-03-19T08:39:22.894Z,998.73
2017-03-19T08:40:22.877Z,998.66
2017-03-19T08:41:22.865Z,998.75
2017-03-19T08:42:22.854Z,998.65
2017-03-19T08:43:22.836Z,998.68
2017-03-19T08:44:22.817Z,998.67
2017-03-19T08:45:22.802Z,998.61
2017-03-19T08:46:22.788Z,998.62
2017-03-19T08:47:22.774Z,998.72
2017-03-19T08:48:22.758Z,998.71
2017-03-19T08:49:22.746Z,998.71
2017-03-19T08:50:22.727Z,998.74
2017-03-19T08:51:22.713Z,998.65
2017-03-19T08:52:22.702Z,998.7
2017-03-19T08:53:22.685Z,998.75
2017-03-19T08:54:22.674Z,998.74
2017-03-19T08:55:22.654Z,998.8
2017-03-19T08:56:22.642Z,998.7
2017-03-19T08:57:22.627Z,998.7
2017-03-19T08:58:22.621Z,998.65
2017-03-19T08:59:22.596Z,998.74
2017-03-19T09:00:22.584Z,998.71
2017-03-19T09:01:22.569Z,998.72
2017-03-19T09:02:22.552Z,998.74
2017-03-19T09:03:22.535Z,998.63
2017-03-19T09:04:22.523Z,998.6
2017-03-19T09:05:22.507Z,998.63
2017-03-19T09:06:22.491Z,998.67
2017-03-19T09:07:22.477Z,998.6
2017-03-19T09:08:22.463Z,998.72
2017-03-19T09:09:22.447Z,998.71
2017-03-19T09:10:22.434Z,998.74
2017-03-19T09:11:22.418Z,998.76
2017-03-19T09:12:22.402Z,998.77
2017-03-19T09:13:22.388Z,998.68
2017-03-19T09:14:22.372Z,998.81
2017-03-19T09:15:22.360Z,998.8
2017-03-19T09:16:22.344Z,998.74
2017-03-19T09:17:22.328Z,998.88
2017-03-19T09:18:22.317Z,998.8
2017-03-19T09:19:22.503Z,998.82
2017-03-19T09:20:22.285Z,998.8
2017-03-19T09:21:22.270Z,998.76
2017-03-19T09:22:22.255Z,998.78
2017-03-19T09:23:22.242Z,998.8
2017-03-19T09:24:22.226Z,998.79
2017-03-19T09:25:22.210Z,998.75
2017-03-19T09:26:22.195Z,998.71
2017-03-19T09:27:22.181Z,998.78
2017-03-19T09:28:22.166Z,998.82
2017-03-19T09:29:22.152Z,998.78
2017-03-19T09:30:22.139Z,998.74
2017-03-19T09:31:22.127Z,998.91
2017-03-19T09:32:22.108Z,998.83
2017-03-19T09:33:22.095Z,998.74
2017-03-19T09:34:22.081Z,998.79
2017-03-19T09:35:22.064Z,998.81
2017-03-19T09:36:22.048Z,998.8
2017-03-19T09:37:22.035Z,998.86
2017-03-19T09:38:22.022Z,998.95
2017-03-19T09:39:22.006Z,999.01
2017-03-19T09:40:21.992Z,998.95
2017-03-19T09:41:21.978Z,998.92
2017-03-19T09:42:21.963Z,998.94
2017-03-19T09:43:21.947Z,998.95
2017-03-19T09:44:21.974Z,998.9
2017-03-19T09:45:21.920Z,998.88
2017-03-19T09:46:21.902Z,998.96
2017-03-19T09:47:21.890Z,998.87
2017-03-19T09:48:21.874Z,998.77
2017-03-19T09:49:21.864Z,998.91
2017-03-19T09:50:21.845Z,998.8
2017-03-19T09:51:21.832Z,998.88
2017-03-19T09:52:21.823Z,998.84
2017-03-19T09:53:21.802Z,998.84
2017-03-19T09:54:21.789Z,998.88
2017-03-19T09:55:21.774Z,998.87
2017-03-19T09:56:21.761Z,998.96
2017-03-19T09:57:21.747Z,999
2017-03-19T09:58:21.735Z,998.95
2017-03-19T09:59:21.717Z,998.87
2017-03-19T10:00:21.702Z,998.9
2017-03-19T10:01:21.687Z,998.87
2017-03-19T10:02:21.673Z,998.93
2017-03-19T10:03:21.661Z,998.82
2017-03-19T10:04:21.641Z,998.85
2017-03-19T10:05:21.629Z,998.72
2017-03-19T10:06:21.616Z,998.81
2017-03-19T10:07:21.600Z,998.74
2017-03-19T10:08:21.585Z,998.72
2017-03-19T10:09:21.571Z,998.68
2017-03-19T10:10:21.557Z,998.74
2017-03-19T10:11:21.546Z,998.6
2017-03-19T10:12:21.526Z,998.55
2017-03-19T10:13:21.515Z,998.68
2017-03-19T10:14:21.499Z,998.59
2017-03-19T10:15:21.484Z,998.59
2017-03-19T10:16:21.474Z,998.61
2017-03-19T10:17:21.455Z,998.57
2017-03-19T10:18:21.441Z,998.56
2017-03-19T10:19:21.427Z,998.53
2017-03-19T10:20:21.422Z,998.53
2017-03-19T10:21:21.398Z,998.58
2017-03-19T10:22:21.383Z,998.49
2017-03-19T10:23:21.372Z,998.53
2017-03-19T10:24:21.357Z,998.52
2017-03-19T10:25:21.343Z,998.42
2017-03-19T10:26:21.326Z,998.42
2017-03-19T10:27:21.314Z,998.39
2017-03-19T10:28:21.300Z,998.31
2017-03-19T10:29:21.286Z,998.32
2017-03-19T10:30:21.270Z,998.33
2017-03-19T10:31:21.261Z,998.4
2017-03-19T10:32:21.243Z,998.4
2017-03-19T10:33:21.231Z,998.46
2017-03-19T10:34:21.215Z,998.45
2017-03-19T10:35:21.203Z,998.42
2017-03-19T10:36:21.189Z,998.43
2017-03-19T10:37:21.174Z,998.44
2017-03-19T10:38:21.164Z,998.48
2017-03-19T10:39:21.147Z,998.39
2017-03-19T10:40:21.134Z,998.37
2017-03-19T10:41:21.119Z,998.32
2017-03-19T10:42:21.106Z,998.37
2017-03-19T10:43:21.096Z,998.36
2017-03-19T10:44:21.079Z,998.3
2017-03-19T10:45:21.066Z,998.23
2017-03-19T10:46:21.052Z,998.25
2017-03-19T10:47:21.037Z,998.22
2017-03-19T10:48:21.023Z,998.23
2017-03-19T10:49:21.012Z,998.33
2017-03-19T10:50:20.999Z,998.22
2017-03-19T10:51:20.984Z,998.34
2017-03-19T10:52:20.971Z,998.23
2017-03-19T10:53:20.957Z,998.26
2017-03-19T10:54:20.945Z,998.3
2017-03-19T10:55:20.929Z,998.33
2017-03-19T10:56:20.918Z,998.29
2017-03-19T10:57:20.905Z,998.26
2017-03-19T10:58:20.898Z,998.28
2017-03-19T10:59:20.883Z,998.39
2017-03-19T11:00:20.864Z,998.35
2017-03-19T11:01:20.853Z,998.3
2017-03-19T11:02:20.843Z,998.32
2017-03-19T11:03:20.832Z,998.29
2017-03-19T11:04:20.815Z,998.25
2017-03-19T11:05:20.805Z,998.24
2017-03-19T11:06:20.787Z,998.23
2017-03-19T11:07:20.775Z,998.31
2017-03-19T11:08:20.764Z,998.34
2017-03-19T11:09:20.750Z,998.35
2017-03-19T11:10:20.735Z,998.31
2017-03-19T11:11:20.721Z,998.29
2017-03-19T11:12:20.722Z,998.34
2017-03-19T11:13:20.696Z,998.37
2017-03-19T11:14:20.683Z,998.38
2017-03-19T11:15:20.671Z,998.42
2017-03-19T11:16:20.663Z,998.38
2017-03-19T11:17:20.643Z,998.36
2017-03-19T11:18:20.629Z,998.44
2017-03-19T11:19:20.617Z,998.46
2017-03-19T11:20:20.604Z,998.44
2017-03-19T11:21:20.591Z,998.45
2017-03-19T11:22:20.579Z,998.39
2017-03-19T11:23:20.566Z,998.48
2017-03-19T11:24:20.552Z,998.46
2017-03-19T11:25:20.540Z,998.46
2017-03-19T11:26:20.527Z,998.39
2017-03-19T11:27:20.514Z,998.66
2017-03-19T11:28:20.501Z,998.42
2017-03-19T11:29:20.486Z,998.47
2017-03-19T11:30:20.472Z,998.48
2017-03-19T11:31:20.459Z,998.4
2017-03-19T11:32:20.445Z,998.33
2017-03-19T11:33:20.432Z,998.19
2017-03-19T11:34:20.419Z,998.17
2017-03-19T11:35:20.405Z,998.17
2017-03-19T11:36:20.392Z,998.13
2017-03-19T11:37:20.379Z,998.12
2017-03-19T11:38:20.363Z,998.15
2017-03-19T11:39:20.353Z,998.22
2017-03-19T11:40:20.337Z,998.12
2017-03-19T11:41:20.324Z,998.14
2017-03-19T11:42:20.313Z,998.12
2017-03-19T11:43:20.298Z,998.24
2017-03-19T11:44:20.283Z,998.22
2017-03-19T11:45:20.270Z,998.28
2017-03-19T11:46:20.255Z,998.22
2017-03-19T11:47:20.242Z,998.21
2017-03-19T11:48:20.234Z,998.36
2017-03-19T11:49:20.219Z,998.33
2017-03-19T11:50:20.253Z,998.3
2017-03-19T11:51:20.193Z,998.29
2017-03-19T11:52:20.179Z,998.35
2017-03-19T11:53:20.164Z,998.4
2017-03-19T11:54:20.151Z,998.41
2017-03-19T11:55:20.137Z,998.44
2017-03-19T11:56:20.125Z,998.45
2017-03-19T11:57:20.112Z,998.6
2017-03-19T11:58:20.098Z,998.44
2017-03-19T11:59:20.086Z,998.53
2017-03-19T12:00:20.071Z,998.43
2017-03-19T12:01:20.058Z,998.41
2017-03-19T12:02:20.044Z,998.46
2017-03-19T12:03:20.032Z,998.34
2017-03-19T12:04:20.073Z,998.33
2017-03-19T12:05:20.002Z,998.36
2017-03-19T12:06:19.990Z,998.32
2017-03-19T12:07:19.977Z,998.33
2017-03-19T12:08:19.962Z,998.26
2017-03-19T12:09:19.952Z,998.29
2017-03-19T12:10:19.934Z,998.27
2017-03-19T12:11:19.928Z,998.3
2017-03-19T12:12:19.908Z,998.35
2017-03-19T12:13:19.896Z,998.51
2017-03-19T12:14:19.880Z,998.43
2017-03-19T12:15:19.869Z,998.57
2017-03-19T12:16:19.853Z,998.52
2017-03-19T12:17:19.841Z,998.65
2017-03-19T12:18:19.828Z,998.48
2017-03-19T12:19:19.814Z,998.57
2017-03-19T12:20:19.799Z,998.6
2017-03-19T12:21:19.787Z,998.66
2017-03-19T12:22:19.772Z,998.59
2017-03-19T12:23:19.758Z,998.62
2017-03-19T12:24:19.746Z,998.63
2017-03-19T12:25:19.732Z,998.6